Time;durP1;ratioP1;P1;durP2;ratioP2;P2;SDS_P1;SDS_P2;PMS_P1;PMS_P2;Temp;Humidity;BMP_temperature;BMP_pressure;BME280_temperature;BME280_humidity;BME280_pressure;Samples;Min_cycle;Max_cycle;Signal;HPM_P1;HPM_P2
2022/02/05 00:02:34;;;;;;;7.03;2.22;;;5.40;99.90;;;;;;5114348;27;20058;-79
2022/02/05 00:05:01;;;;;;;7.13;1.55;;;5.40;99.90;;;;;;5132930;27;20027;-78
2022/02/05 00:07:28;;;;;;;6.78;1.35;;;5.50;99.90;;;;;;5128401;27;20592;-78
2022/02/05 00:10:14;;;;;;;7.18;1.35;;;5.50;99.90;;;;;;5114988;28;20042;-77
2022/02/05 00:13:01;;;;;;;8.27;1.55;;;5.50;99.90;;;;;;5113463;28;20527;-76
2022/02/05 00:15:36;;;;;;;6.15;1.52;;;5.50;99.90;;;;;;5114103;28;20031;-77
2022/02/05 00:40:16;;;;;;;7.95;1.30;;;5.30;99.90;;;;;;5113612;28;20038;-74
2022/02/05 00:42:42;;;;;;;16.50;2.45;;;5.20;99.90;;;;;;5113669;28;20031;-76
2022/02/05 00:45:10;;;;;;;7.22;1.30;;;5.30;99.90;;;;;;5113025;28;20030;-75
2022/02/05 00:47:41;;;;;;;5.78;1.52;;;5.30;99.90;;;;;;5112683;28;20035;-75
2022/02/05 00:50:12;;;;;;;10.88;1.67;;;5.20;99.90;;;;;;5113389;28;20020;-77
2022/02/05 00:52:44;;;;;;;14.45;2.17;;;5.20;99.90;;;;;;5114951;28;20044;-77
2022/02/05 00:55:12;;;;;;;8.05;1.80;;;5.10;99.90;;;;;;5112245;28;20067;-76
2022/02/05 00:57:46;;;;;;;11.68;1.17;;;5.20;99.90;;;;;;5113071;28;20068;-76
2022/02/05 01:00:17;;;;;;;10.90;1.92;;;5.20;99.90;;;;;;5115649;28;20065;-76
2022/02/05 01:02:43;;;;;;;12.50;2.85;;;5.20;99.90;;;;;;5114063;28;20051;-76
2022/02/05 01:05:09;;;;;;;10.32;1.88;;;5.20;99.90;;;;;;5113895;28;20066;-76
2022/02/05 01:07:35;;;;;;;8.93;1.35;;;5.10;99.90;;;;;;5112904;28;20027;-77
2022/02/05 01:10:00;;;;;;;11.60;2.63;;;5.10;99.90;;;;;;5112486;28;20489;-76
2022/02/05 01:12:29;;;;;;;10.48;1.80;;;5.00;99.90;;;;;;5112996;28;20035;-77
2022/02/05 01:14:58;;;;;;;6.47;1.40;;;5.00;99.90;;;;;;5113370;28;20155;-76
2022/02/05 01:17:30;;;;;;;14.60;2.85;;;5.00;99.90;;;;;;5112426;28;20107;-77
2022/02/05 01:22:42;;;;;;;12.15;2.22;;;5.10;99.90;;;;;;5114926;27;20039;-77
2022/02/05 01:25:08;;;;;;;5.47;1.85;;;5.00;99.90;;;;;;5112985;28;20024;-76
2022/02/05 01:32:38;;;;;;;8.68;1.33;;;5.00;99.90;;;;;;5112915;28;20024;-76
2022/02/05 01:35:12;;;;;;;7.07;1.20;;;4.90;99.90;;;;;;5133250;27;20511;-77
2022/02/05 01:56:44;;;;;;;7.25;1.45;;;4.80;99.90;;;;;;5133506;28;20122;-76
2022/02/05 01:59:18;;;;;;;9.70;2.75;;;4.80;99.90;;;;;;5131983;28;20033;-77
2022/02/05 02:05:31;;;;;;;9.85;1.67;;;4.80;99.90;;;;;;5132597;28;20037;-77
2022/02/05 02:13:27;;;;;;;12.38;1.95;;;5.00;99.90;;;;;;5132748;28;20378;-77
2022/02/05 02:15:51;;;;;;;9.93;1.75;;;4.90;99.90;;;;;;5131531;28;20049;-77
2022/02/05 02:18:41;;;;;;;15.40;1.98;;;4.90;99.90;;;;;;5133062;27;20023;-77
2022/02/05 02:21:27;;;;;;;9.35;2.08;;;4.80;99.90;;;;;;5132676;27;20359;-76
2022/02/05 02:26:37;;;;;;;18.55;2.92;;;4.70;99.90;;;;;;5136703;27;20023;-77
2022/02/05 02:29:15;;;;;;;9.00;1.63;;;4.80;99.90;;;;;;5137217;27;20088;-76
2022/02/05 02:31:50;;;;;;;17.95;1.77;;;4.80;99.90;;;;;;5137524;27;20031;-77
2022/02/05 02:34:21;;;;;;;7.57;1.65;;;4.80;99.90;;;;;;5136326;27;20035;-76
2022/02/05 02:36:52;;;;;;;9.40;1.13;;;4.80;99.90;;;;;;5136916;27;20382;-76
2022/02/05 02:39:33;;;;;;;10.15;1.60;;;4.90;99.90;;;;;;5136754;27;20093;-77
2022/02/05 02:42:07;;;;;;;23.33;3.63;;;4.90;99.90;;;;;;5136405;27;20038;-76
2022/02/05 02:44:33;;;;;;;15.82;2.15;;;4.80;99.90;;;;;;5137393;27;20027;-77
2022/02/05 02:46:58;;;;;;;9.73;1.60;;;4.70;99.90;;;;;;5136735;27;20057;-76
2022/02/05 02:50:31;;;;;;;6.65;1.55;;;4.60;99.90;;;;;;5135776;27;20041;-76
2022/02/05 02:58:06;;;;;;;13.95;1.83;;;4.70;99.90;;;;;;5136311;27;20025;-76
2022/02/05 03:00:32;;;;;;;10.10;1.38;;;4.50;99.90;;;;;;5135852;27;20069;-77
2022/02/05 03:02:57;;;;;;;9.77;2.67;;;4.60;99.90;;;;;;5135215;27;20047;-77
2022/02/05 03:05:24;;;;;;;9.07;2.30;;;4.70;99.90;;;;;;5137653;27;20034;-77
2022/02/05 03:07:50;;;;;;;13.30;3.00;;;4.80;99.90;;;;;;5135245;27;20042;-76
2022/02/05 03:10:16;;;;;;;19.45;2.08;;;4.70;99.90;;;;;;5135603;27;20106;-77
2022/02/05 03:12:45;;;;;;;13.35;1.63;;;4.80;99.90;;;;;;5135771;27;20090;-76
2022/02/05 03:15:13;;;;;;;14.88;1.40;;;4.90;99.90;;;;;;5134641;27;20027;-77
2022/02/05 03:17:46;;;;;;;9.50;1.50;;;4.90;99.90;;;;;;5135832;27;20024;-76
2022/02/05 03:20:11;;;;;;;13.02;1.95;;;4.90;99.90;;;;;;5135535;27;20106;-77
2022/02/05 03:22:37;;;;;;;11.15;1.50;;;5.00;99.90;;;;;;5135228;27;20107;-77
2022/02/05 03:25:03;;;;;;;9.60;1.65;;;5.00;99.90;;;;;;5135511;27;20129;-76
2022/02/05 03:27:29;;;;;;;11.15;2.40;;;5.00;99.90;;;;;;5135731;27;20072;-76
2022/02/05 03:29:54;;;;;;;12.27;2.60;;;4.90;99.90;;;;;;5135521;27;20019;-77
2022/02/05 03:32:22;;;;;;;10.35;2.25;;;5.00;99.90;;;;;;5136030;27;20023;-76
2022/02/05 03:34:48;;;;;;;9.32;1.55;;;4.90;99.90;;;;;;5135715;27;20027;-76
2022/02/05 03:37:15;;;;;;;16.08;1.90;;;4.80;99.90;;;;;;5134908;27;20023;-76
2022/02/05 03:39:41;;;;;;;9.27;1.63;;;4.90;99.90;;;;;;5137463;27;20029;-76
2022/02/05 03:42:07;;;;;;;11.35;1.65;;;4.90;99.90;;;;;;5135089;27;20027;-77
2022/02/05 03:44:33;;;;;;;9.77;1.58;;;4.80;99.90;;;;;;5134768;27;20156;-75
2022/02/05 03:46:58;;;;;;;6.85;1.52;;;4.80;99.90;;;;;;5135363;27;20046;-75
2022/02/05 03:49:24;;;;;;;21.25;2.55;;;4.80;99.90;;;;;;5135058;27;20446;-75
2022/02/05 03:51:50;;;;;;;7.60;2.03;;;4.70;99.90;;;;;;5135309;27;20027;-75
2022/02/05 03:54:20;;;;;;;9.23;1.63;;;4.70;99.90;;;;;;5135255;27;20023;-75
2022/02/05 03:56:49;;;;;;;12.15;1.58;;;4.70;99.90;;;;;;5135445;27;20110;-76
2022/02/05 03:59:15;;;;;;;8.35;1.30;;;4.70;99.90;;;;;;5133743;27;20547;-76
2022/02/05 04:01:41;;;;;;;13.20;2.28;;;4.70;99.90;;;;;;5134790;27;20023;-76
2022/02/05 04:04:07;;;;;;;9.15;1.45;;;4.60;99.90;;;;;;5133882;27;20386;-77
2022/02/05 04:06:33;;;;;;;9.40;1.85;;;4.50;99.90;;;;;;5135905;27;20027;-77
2022/02/05 04:09:04;;;;;;;7.32;1.55;;;4.40;99.90;;;;;;5136178;27;20431;-77
2022/02/05 04:16:47;;;;;;;13.98;2.47;;;4.50;99.90;;;;;;5135938;27;20056;-76
2022/02/05 04:19:15;;;;;;;8.55;1.20;;;4.40;99.90;;;;;;5134520;27;20087;-76
2022/02/05 04:21:41;;;;;;;15.85;2.47;;;4.30;99.90;;;;;;5134209;27;20394;-77
2022/02/05 04:24:06;;;;;;;15.52;2.55;;;4.40;99.90;;;;;;5134462;27;20019;-77
2022/02/05 04:26:32;;;;;;;14.77;2.33;;;4.40;99.90;;;;;;5134295;27;20482;-76
2022/02/05 04:28:58;;;;;;;14.45;2.72;;;4.40;99.90;;;;;;5134220;27;20031;-76
2022/02/05 04:31:24;;;;;;;16.00;2.28;;;4.40;99.90;;;;;;5134019;27;20029;-78
2022/02/05 04:33:50;;;;;;;9.88;1.50;;;4.40;99.90;;;;;;5133639;27;20027;-75
2022/02/05 04:36:17;;;;;;;7.00;1.33;;;4.50;99.90;;;;;;5133791;27;20435;-76
2022/02/05 04:38:45;;;;;;;12.38;2.53;;;4.50;99.90;;;;;;5134291;27;20030;-77
2022/02/05 04:41:20;;;;;;;10.95;1.77;;;4.40;99.90;;;;;;5133265;27;20399;-77
2022/02/05 04:44:18;;;;;;;14.80;1.85;;;4.40;99.90;;;;;;5134400;27;20037;-77
2022/02/05 04:47:22;;;;;;;16.08;1.73;;;4.50;99.90;;;;;;5133289;27;20019;-78
2022/02/05 04:50:10;;;;;;;8.70;1.58;;;4.50;99.90;;;;;;5133758;27;20144;-77
2022/02/05 04:55:36;;;;;;;16.40;1.85;;;4.60;99.90;;;;;;5132791;27;20505;-78
2022/02/05 04:58:24;;;;;;;9.57;1.58;;;4.60;99.90;;;;;;5133507;27;20030;-75
2022/02/05 05:01:01;;;;;;;23.25;2.88;;;4.60;99.90;;;;;;5135370;27;20023;-77
2022/02/05 05:03:46;;;;;;;7.68;1.50;;;4.60;99.90;;;;;;5133296;27;20574;-76
2022/02/05 05:06:28;;;;;;;7.53;1.48;;;4.60;99.90;;;;;;5133230;27;20486;-76
2022/02/05 05:09:14;;;;;;;14.63;1.55;;;4.60;99.90;;;;;;5132726;27;20482;-77
2022/02/05 05:11:50;;;;;;;12.88;1.98;;;4.70;99.90;;;;;;5136080;27;20027;-77
2022/02/05 05:19:30;;;;;;;9.35;2.10;;;4.60;99.90;;;;;;5133478;27;20427;-77
2022/02/05 05:21:58;;;;;;;11.43;1.50;;;4.70;99.90;;;;;;5133152;27;20020;-77
2022/02/05 05:24:24;;;;;;;3.30;1.05;;;4.60;99.90;;;;;;5133889;27;20083;-77
2022/02/05 05:26:49;;;;;;;11.02;1.48;;;4.80;99.90;;;;;;5134318;27;20019;-77
2022/02/05 05:29:15;;;;;;;9.65;1.60;;;4.80;99.90;;;;;;5133609;27;20150;-76
2022/02/05 05:31:41;;;;;;;10.93;2.22;;;4.70;99.90;;;;;;5133738;28;20049;-77
2022/02/05 05:34:06;;;;;;;11.93;2.20;;;4.90;99.90;;;;;;5133332;28;20030;-78
2022/02/05 05:36:32;;;;;;;14.10;3.20;;;4.70;99.90;;;;;;5133158;28;20076;-77
2022/02/05 05:39:02;;;;;;;13.27;1.80;;;4.70;99.90;;;;;;5133754;27;20374;-77
2022/02/05 05:41:33;;;;;;;11.52;1.90;;;4.60;99.90;;;;;;5133778;28;20027;-77
2022/02/05 05:46:48;;;;;;;13.25;1.92;;;4.70;99.90;;;;;;5134285;28;19910;-78
2022/02/05 05:49:17;;;;;;;8.23;1.60;;;4.70;99.90;;;;;;5133573;27;20168;-77
2022/02/05 05:51:44;;;;;;;7.15;1.90;;;4.70;99.90;;;;;;5132432;28;20026;-77
2022/02/05 05:54:10;;;;;;;7.25;1.63;;;4.70;99.90;;;;;;5134233;28;20035;-76
2022/02/05 05:56:36;;;;;;;20.73;3.17;;;4.60;99.90;;;;;;5133443;27;20015;-76
2022/02/05 05:59:03;;;;;;;7.07;1.40;;;4.70;99.90;;;;;;5135502;27;20084;-78
2022/02/05 06:01:31;;;;;;;8.15;1.70;;;4.60;99.90;;;;;;5137706;27;20023;-77
2022/02/05 06:03:57;;;;;;;9.30;1.63;;;4.60;99.90;;;;;;5137911;27;20088;-77
2022/02/05 06:06:23;;;;;;;5.03;1.63;;;4.60;99.90;;;;;;5138103;27;20411;-77
2022/02/05 06:08:49;;;;;;;11.43;1.70;;;4.40;99.90;;;;;;5138157;27;20092;-77
2022/02/05 06:11:15;;;;;;;9.55;1.73;;;4.50;99.90;;;;;;5137158;27;20065;-76
2022/02/05 06:13:40;;;;;;;8.50;1.50;;;4.40;99.90;;;;;;5138303;27;20498;-77
2022/02/05 06:16:11;;;;;;;8.55;1.42;;;4.40;99.90;;;;;;5137478;27;20031;-77
2022/02/05 06:18:37;;;;;;;9.75;1.70;;;4.50;99.90;;;;;;5137615;27;20470;-76
2022/02/05 06:21:02;;;;;;;10.98;1.50;;;4.40;99.90;;;;;;5138313;27;20079;-77
2022/02/05 06:23:28;;;;;;;17.77;2.08;;;4.30;99.90;;;;;;5138362;27;20110;-78
2022/02/05 06:25:53;;;;;;;9.70;1.67;;;4.30;99.90;;;;;;5137118;27;20023;-77
2022/02/05 06:28:19;;;;;;;11.25;1.73;;;4.40;99.90;;;;;;5137541;27;20079;-77
2022/02/05 06:30:45;;;;;;;12.65;2.20;;;4.30;99.90;;;;;;5138846;27;20072;-77
2022/02/05 06:33:11;;;;;;;4.20;1.15;;;4.20;99.90;;;;;;5137210;27;20106;-77
2022/02/05 06:35:37;;;;;;;6.90;1.58;;;4.20;99.90;;;;;;5138365;27;20031;-77
2022/02/05 06:38:03;;;;;;;11.73;1.75;;;4.30;99.90;;;;;;5137768;27;20126;-77
2022/02/05 06:40:29;;;;;;;5.75;1.38;;;4.30;99.90;;;;;;5136269;27;20019;-76
2022/02/05 06:42:54;;;;;;;16.05;4.38;;;4.30;99.90;;;;;;5137005;27;20154;-76
2022/02/05 06:45:20;;;;;;;8.32;2.00;;;4.30;99.90;;;;;;5136399;27;20030;-76
2022/02/05 06:47:46;;;;;;;5.47;1.30;;;4.30;99.90;;;;;;5136721;27;20028;-77
2022/02/05 06:50:12;;;;;;;9.68;1.55;;;4.30;99.90;;;;;;5136379;27;20015;-77
2022/02/05 06:52:38;;;;;;;6.72;1.10;;;4.30;99.90;;;;;;5136764;27;20498;-76
2022/02/05 06:55:04;;;;;;;7.68;1.35;;;4.30;99.90;;;;;;5136638;27;20019;-76
2022/02/05 06:57:30;;;;;;;6.50;1.50;;;4.20;99.90;;;;;;5136610;27;20039;-77
2022/02/05 06:59:55;;;;;;;8.25;1.80;;;4.20;99.90;;;;;;5135518;27;20390;-77
2022/02/05 07:02:21;;;;;;;9.18;1.52;;;4.10;99.90;;;;;;5136176;27;20043;-77
2022/02/05 07:04:50;;;;;;;11.75;2.20;;;4.10;99.90;;;;;;5136872;27;20386;-76
2022/02/05 07:07:15;;;;;;;6.65;1.65;;;4.00;99.90;;;;;;5136966;27;20031;-76
2022/02/05 07:09:42;;;;;;;15.48;3.05;;;4.10;99.90;;;;;;5133639;27;20023;-76
2022/02/05 07:12:10;;;;;;;5.80;1.60;;;4.10;99.90;;;;;;5117813;27;20071;-77
2022/02/05 07:14:43;;;;;;;6.53;1.60;;;4.20;99.90;;;;;;5113949;28;20471;-77
2022/02/05 07:17:21;;;;;;;13.25;1.67;;;4.20;99.90;;;;;;5115678;27;20062;-77
2022/02/05 07:20:34;;;;;;;15.95;3.08;;;4.30;99.90;;;;;;5114436;27;20423;-77
2022/02/05 07:31:16;;;;;;;9.07;1.63;;;4.50;99.90;;;;;;5125286;27;20583;-78
2022/02/05 07:33:43;;;;;;;4.82;1.67;;;4.50;99.90;;;;;;5114336;28;20424;-77
2022/02/05 07:36:11;;;;;;;9.40;2.28;;;4.50;99.90;;;;;;5110897;27;20027;-77
2022/02/05 07:38:36;;;;;;;11.40;3.22;;;4.60;99.90;;;;;;5119657;27;20488;-76
2022/02/05 07:41:02;;;;;;;8.98;1.90;;;4.60;99.90;;;;;;5130523;27;20024;-76
2022/02/05 07:43:29;;;;;;;8.68;1.80;;;4.60;99.90;;;;;;5130135;27;20027;-76
2022/02/05 07:45:56;;;;;;;15.95;2.42;;;4.70;99.90;;;;;;5133926;27;20534;-76
2022/02/05 07:48:21;;;;;;;16.60;3.72;;;4.60;99.90;;;;;;5133109;27;20443;-76
2022/02/05 07:50:47;;;;;;;18.80;4.30;;;4.70;99.90;;;;;;5132451;27;20035;-77
2022/02/05 07:53:12;;;;;;;9.88;2.38;;;4.70;99.90;;;;;;5127191;27;20019;-76
2022/02/05 07:55:41;;;;;;;9.45;2.65;;;4.80;99.90;;;;;;5132430;27;20019;-78
2022/02/05 07:58:06;;;;;;;9.25;2.40;;;4.80;99.90;;;;;;5130970;27;20076;-78
2022/02/05 08:00:32;;;;;;;16.98;2.05;;;4.80;99.90;;;;;;5130823;27;20019;-79
2022/02/05 08:03:01;;;;;;;13.60;2.80;;;4.90;99.90;;;;;;5131370;27;20043;-77
2022/02/05 08:05:26;;;;;;;13.20;2.88;;;4.90;99.90;;;;;;5131586;27;20069;-79
2022/02/05 08:07:53;;;;;;;11.05;2.55;;;4.90;99.90;;;;;;5132398;27;20401;-78
2022/02/05 08:10:21;;;;;;;13.77;3.35;;;4.90;99.90;;;;;;5131792;27;20035;-79
2022/02/05 08:12:52;;;;;;;11.63;1.42;;;4.90;99.90;;;;;;5132592;27;20027;-80
2022/02/05 08:15:22;;;;;;;16.20;2.20;;;4.80;99.90;;;;;;5128862;27;20042;-80
2022/02/05 08:17:49;;;;;;;7.95;2.10;;;4.80;99.90;;;;;;5132067;27;20447;-80
2022/02/05 08:20:14;;;;;;;13.13;2.22;;;4.70;99.90;;;;;;5133733;27;20054;-81
2022/02/05 08:22:40;;;;;;;14.30;2.55;;;4.80;99.90;;;;;;5134852;27;20027;-81
2022/02/05 08:25:05;;;;;;;13.43;2.88;;;4.90;99.90;;;;;;5127848;27;20027;-81
2022/02/05 08:27:31;;;;;;;11.20;2.45;;;4.90;99.90;;;;;;5114352;28;20043;-81
2022/02/05 08:30:00;;;;;;;9.27;2.15;;;4.90;99.90;;;;;;5115050;28;20536;-81
2022/02/05 08:32:27;;;;;;;8.07;2.55;;;4.90;99.90;;;;;;5114031;28;20028;-81
2022/02/05 08:34:55;;;;;;;18.10;3.28;;;5.00;99.90;;;;;;5115342;28;20071;-83
2022/02/05 08:37:21;;;;;;;12.18;3.35;;;5.00;99.90;;;;;;5114184;28;20052;-81
2022/02/05 08:39:46;;;;;;;15.27;3.33;;;5.00;99.90;;;;;;5114325;28;20055;-81
2022/02/05 08:42:12;;;;;;;19.90;4.05;;;5.10;99.90;;;;;;5113420;28;20486;-84
2022/02/05 08:44:38;;;;;;;20.05;4.55;;;5.20;99.90;;;;;;5114391;28;20102;-81
2022/02/05 08:47:06;;;;;;;18.60;2.40;;;5.20;99.90;;;;;;5113212;28;20073;-82
2022/02/05 08:49:32;;;;;;;10.35;2.58;;;5.30;99.90;;;;;;5116758;27;20149;-79
2022/02/05 08:52:00;;;;;;;6.82;3.17;;;5.40;99.90;;;;;;5124595;27;20418;-85
2022/02/05 08:54:27;;;;;;;13.98;2.58;;;5.50;99.90;;;;;;5137057;27;20092;-84
2022/02/05 08:56:54;;;;;;;11.93;2.60;;;5.60;99.90;;;;;;5149419;27;20029;-85
2022/02/05 08:59:24;;;;;;;10.75;2.13;;;5.70;99.90;;;;;;5128015;27;20028;-84
2022/02/05 09:04:28;;;;;;;13.40;2.92;;;5.80;99.90;;;;;;5122746;27;20026;-81
2022/02/05 09:06:56;;;;;;;12.88;3.80;;;5.80;99.90;;;;;;5117360;27;20023;-81
2022/02/05 09:09:37;;;;;;;10.25;1.67;;;5.80;99.90;;;;;;5116688;28;20035;-83
2022/02/05 09:12:18;;;;;;;12.02;2.05;;;5.80;99.90;;;;;;5120363;28;20000;-84
2022/02/05 09:14:48;;;;;;;11.07;2.25;;;5.70;99.90;;;;;;5120627;27;20037;-85
2022/02/05 09:17:16;;;;;;;14.43;2.50;;;5.70;99.90;;;;;;5117810;28;20151;-83
2022/02/05 09:19:42;;;;;;;18.48;3.05;;;5.70;99.90;;;;;;5128810;27;20035;-84
2022/02/05 09:22:09;;;;;;;11.05;2.03;;;5.70;99.90;;;;;;5138006;27;20039;-83
2022/02/05 09:24:36;;;;;;;9.82;2.05;;;5.80;99.90;;;;;;5130399;27;20035;-84
2022/02/05 09:27:05;;;;;;;15.18;2.42;;;5.80;99.90;;;;;;5120367;28;20097;-83
2022/02/05 09:29:36;;;;;;;12.88;2.50;;;5.90;99.90;;;;;;5124240;28;20035;-83
2022/02/05 09:32:01;;;;;;;12.38;3.72;;;6.00;99.90;;;;;;5130972;27;20522;-83
2022/02/05 09:34:27;;;;;;;13.82;3.40;;;6.00;99.90;;;;;;5132978;27;20077;-83
2022/02/05 09:36:53;;;;;;;19.45;3.53;;;6.30;99.90;;;;;;5132081;28;20045;-84
2022/02/05 09:39:18;;;;;;;13.27;3.78;;;6.40;99.90;;;;;;5125516;28;20046;-84
2022/02/05 09:41:45;;;;;;;18.33;3.20;;;6.50;99.90;;;;;;5116468;28;20007;-85
2022/02/05 09:44:11;;;;;;;17.02;3.08;;;7.30;99.90;;;;;;5114615;28;20027;-85
2022/02/05 09:46:37;;;;;;;10.73;2.65;;;6.50;99.90;;;;;;5114864;28;20020;-85
2022/02/05 09:49:04;;;;;;;22.77;4.43;;;6.60;99.90;;;;;;5114916;28;20088;-84
2022/02/05 09:51:34;;;;;;;20.70;4.90;;;6.60;99.90;;;;;;5115861;28;20024;-85
2022/02/05 09:54:01;;;;;;;15.77;3.17;;;6.70;99.90;;;;;;5116260;28;20030;-85
2022/02/05 09:56:29;;;;;;;17.58;2.55;;;6.60;99.90;;;;;;5114906;28;20157;-85
2022/02/05 09:58:55;;;;;;;11.32;1.85;;;6.60;99.90;;;;;;5118005;28;20015;-84
2022/02/05 10:03:49;;;;;;;11.57;1.63;;;6.60;99.90;;;;;;5114603;28;20112;-84
2022/02/05 10:06:21;;;;;;;7.28;1.85;;;6.60;99.90;;;;;;5114187;28;20032;-84
2022/02/05 10:08:58;;;;;;;13.25;1.80;;;6.70;99.90;;;;;;5113926;28;20036;-81
2022/02/05 10:11:24;;;;;;;9.82;1.80;;;6.60;99.90;;;;;;5112399;28;20493;-81
2022/02/05 10:13:50;;;;;;;9.90;2.13;;;6.50;99.90;;;;;;5113920;28;20032;-82
2022/02/05 10:16:27;;;;;;;15.55;3.80;;;6.60;99.90;;;;;;5113397;28;20049;-79
2022/02/05 10:18:57;;;;;;;6.75;2.30;;;6.60;99.90;;;;;;5112352;28;20028;-77
2022/02/05 10:21:25;;;;;;;18.33;2.58;;;6.60;99.90;;;;;;5113228;28;20069;-77
2022/02/05 10:24:05;;;;;;;14.50;2.42;;;6.60;99.90;;;;;;5111959;28;20139;-76
2022/02/05 10:26:35;;;;;;;18.67;2.00;;;6.60;99.90;;;;;;5113463;28;20336;-80
2022/02/05 10:29:09;;;;;;;11.68;2.08;;;6.70;99.90;;;;;;5112624;28;20072;-77
2022/02/05 10:32:03;;;;;;;11.20;2.78;;;6.80;99.90;;;;;;5113042;28;20024;-80
2022/02/05 10:34:33;;;;;;;10.45;1.77;;;6.90;99.90;;;;;;5114489;28;20387;-81
2022/02/05 10:37:27;;;;;;;20.65;2.08;;;7.00;99.90;;;;;;5129425;28;20499;-80
2022/02/05 10:45:11;;;;;;;6.50;1.52;;;7.20;99.90;;;;;;5135543;27;20080;-79
2022/02/05 10:47:55;;;;;;;13.80;2.28;;;7.20;99.90;;;;;;5120093;27;20429;-77
2022/02/05 10:50:35;;;;;;;17.23;2.67;;;7.10;99.90;;;;;;5119593;27;20114;-80
2022/02/05 10:53:21;;;;;;;12.63;2.10;;;7.10;99.90;;;;;;5116259;27;20043;-73
2022/02/05 10:56:02;;;;;;;14.10;2.33;;;7.10;99.90;;;;;;5119180;28;20025;-81
2022/02/05 11:07:16;;;;;;;13.60;1.92;;;7.00;99.90;;;;;;5116406;28;20056;-81
2022/02/05 11:09:46;;;;;;;10.70;2.53;;;7.00;99.90;;;;;;5121439;27;20019;-80
2022/02/05 11:18:08;;;;;;;15.82;2.83;;;7.30;99.90;;;;;;5123473;28;20080;-80
2022/02/05 11:20:34;;;;;;;19.47;2.30;;;7.40;99.90;;;;;;5115535;28;20032;-81
2022/02/05 11:23:04;;;;;;;16.10;2.33;;;7.50;99.90;;;;;;5116723;28;20239;-80
2022/02/05 11:25:32;;;;;;;;;;;7.60;99.90;;;;;;5119209;28;20036;-81
2022/02/05 11:27:57;;;;;;;14.77;2.53;;;7.70;99.90;;;;;;5118698;28;19912;-79
2022/02/05 11:30:39;;;;;;;15.60;2.28;;;7.80;99.90;;;;;;5114827;28;20028;-80
2022/02/05 11:33:30;;;;;;;12.38;1.92;;;8.00;99.90;;;;;;5120712;27;20027;-80
2022/02/05 11:38:44;;;;;;;10.15;3.38;;;8.10;99.90;;;;;;5118514;28;20025;-78
2022/02/05 11:41:28;;;;;;;15.63;1.67;;;8.00;99.90;;;;;;5115539;28;20058;-78
2022/02/05 11:44:23;;;;;;;12.43;1.60;;;8.00;99.90;;;;;;5115008;28;20026;-78
2022/02/05 11:47:03;;;;;;;18.13;2.28;;;7.90;99.90;;;;;;5115710;28;20015;-79
2022/02/05 11:49:48;;;;;;;;;;;7.80;99.90;;;;;;5128228;27;20494;-80
2022/02/05 11:52:36;;;;;;;10.70;1.88;;;7.80;99.90;;;;;;5128250;28;19947;-82
2022/02/05 11:55:04;;;;;;;4.25;1.38;;;7.80;99.90;;;;;;5116553;28;20015;-81
2022/02/05 11:57:45;;;;;;;12.38;2.90;;;7.90;99.90;;;;;;5117228;28;20024;-81
2022/02/05 12:00:12;;;;;;;;;;;8.60;99.90;;;;;;5121306;28;20077;-81
2022/02/05 12:02:40;;;;;;;7.07;1.23;;;8.10;99.90;;;;;;5121473;28;20295;-82
2022/02/05 12:05:21;;;;;;;5.63;1.67;;;8.20;99.90;;;;;;5123036;27;20054;-81
2022/02/05 12:08:04;;;;;;;15.75;2.33;;;8.20;99.90;;;;;;5140726;27;20052;-81
2022/02/05 12:10:34;;;;;;;11.85;2.88;;;8.20;99.90;;;;;;5120759;28;20028;-81
2022/02/05 12:13:25;;;;;;;13.65;1.80;;;8.20;99.90;;;;;;5114963;28;20075;-81
2022/02/05 12:16:03;;;;;;;17.65;3.03;;;8.20;99.90;;;;;;5114559;28;20111;-81
2022/02/05 12:18:31;;;;;;;10.90;4.03;;;8.10;99.90;;;;;;5112994;28;20042;-80
2022/02/05 12:21:01;;;;;;;8.27;2.15;;;8.00;99.90;;;;;;5114530;28;20026;-80
2022/02/05 12:26:20;;;;;;;16.92;2.25;;;8.60;99.90;;;;;;5113517;28;20019;-80
2022/02/05 12:28:48;;;;;;;13.70;2.55;;;8.20;99.90;;;;;;5113997;28;20035;-81
2022/02/05 12:31:21;;;;;;;10.98;1.65;;;8.40;99.90;;;;;;5112863;28;20019;-79
2022/02/05 12:33:51;;;;;;;8.02;1.75;;;8.50;99.90;;;;;;5114371;28;20132;-80
2022/02/05 12:36:27;;;;;;;7.43;1.45;;;8.50;99.90;;;;;;5113965;28;20114;-79
2022/02/05 12:38:54;;;;;;;12.32;1.55;;;8.60;99.90;;;;;;5113248;28;20114;-78
2022/02/05 12:41:22;;;;;;;11.02;1.65;;;8.50;99.90;;;;;;5113304;28;20103;-79
2022/02/05 12:43:56;;;;;;;6.93;1.75;;;8.50;99.90;;;;;;5113762;28;20378;-79
2022/02/05 12:46:36;;;;;;;10.57;1.60;;;8.50;99.90;;;;;;5113185;28;20023;-80
2022/02/05 12:49:07;;;;;;;5.40;1.85;;;8.50;99.90;;;;;;5113671;28;20035;-81
2022/02/05 12:51:33;;;;;;;7.03;1.98;;;8.50;99.90;;;;;;5114040;28;20031;-80
2022/02/05 12:54:12;;;;;;;12.50;1.38;;;8.60;99.90;;;;;;5114903;28;20035;-81
2022/02/05 12:56:41;;;;;;;9.38;1.85;;;8.50;99.90;;;;;;5114687;28;20106;-79
2022/02/05 12:59:12;;;;;;;16.50;1.52;;;8.50;99.90;;;;;;5113968;28;20029;-80
2022/02/05 13:01:57;;;;;;;22.30;2.72;;;8.40;99.90;;;;;;5114133;28;20085;-80
2022/02/05 13:04:31;;;;;;;16.38;3.03;;;8.50;99.90;;;;;;5113763;28;20043;-81
2022/02/05 13:07:23;;;;;;;18.67;2.35;;;8.50;99.90;;;;;;5112965;28;20050;-79
2022/02/05 13:09:59;;;;;;;9.88;2.65;;;8.60;99.90;;;;;;5126199;27;20039;-81
2022/02/05 13:12:32;;;;;;;10.65;2.03;;;8.70;99.90;;;;;;5118990;27;20024;-82
2022/02/05 13:15:06;;;;;;;16.73;2.17;;;8.70;99.90;;;;;;5120313;27;20428;-80
2022/02/05 13:28:35;;;;;;;12.75;1.85;;;8.60;99.90;;;;;;5126666;27;20506;-80
2022/02/05 13:33:58;;;;;;;9.60;1.65;;;8.70;99.90;;;;;;5122024;28;19915;-81
2022/02/05 13:36:39;;;;;;;3.85;1.25;;;8.70;99.90;;;;;;5113503;28;20119;-79
2022/02/05 13:39:17;;;;;;;7.88;1.90;;;8.80;99.90;;;;;;5113592;28;20026;-81
2022/02/05 13:44:17;;;;;;;9.98;1.90;;;8.80;99.90;;;;;;5113591;28;20432;-80
2022/02/05 13:46:42;;;;;;;13.98;1.67;;;8.70;99.90;;;;;;5114425;28;20107;-76
2022/02/05 13:49:16;;;;;;;18.05;2.67;;;8.70;99.90;;;;;;5113447;28;20114;-81
2022/02/05 13:51:42;;;;;;;11.95;2.60;;;8.60;99.90;;;;;;5114846;28;20490;-82
2022/02/05 13:54:08;;;;;;;14.55;1.90;;;8.60;99.90;;;;;;5114264;28;20050;-82
2022/02/05 13:56:35;;;;;;;17.08;3.00;;;8.70;99.90;;;;;;5113899;28;20364;-81
2022/02/05 13:59:02;;;;;;;13.00;2.45;;;8.60;99.90;;;;;;5115080;28;20027;-80
2022/02/05 14:01:31;;;;;;;13.45;2.80;;;8.70;99.90;;;;;;5116132;28;20140;-81
2022/02/05 14:04:14;;;;;;;8.68;2.00;;;8.70;99.90;;;;;;5114773;28;20078;-81
2022/02/05 14:06:57;;;;;;;8.65;2.25;;;8.70;99.90;;;;;;5114470;28;20196;-81
2022/02/05 14:09:29;;;;;;;13.07;1.80;;;8.70;99.90;;;;;;5113407;28;20035;-80
2022/02/05 14:11:57;;;;;;;9.43;2.00;;;8.70;99.90;;;;;;5118591;28;20054;-81
2022/02/05 14:14:31;;;;;;;13.30;2.88;;;8.70;99.90;;;;;;5118222;28;20034;-81
2022/02/05 14:16:57;;;;;;;7.68;1.40;;;8.70;99.90;;;;;;5116598;28;20360;-81
2022/02/05 14:19:27;;;;;;;12.88;1.55;;;8.70;99.90;;;;;;5115310;28;20379;-81
2022/02/05 14:21:54;;;;;;;13.50;1.83;;;8.80;99.90;;;;;;5118339;28;20104;-80
2022/02/05 14:24:25;;;;;;;14.52;2.72;;;8.80;99.90;;;;;;5118015;28;20395;-81
2022/02/05 14:29:21;;;;;;;10.23;1.88;;;8.80;99.90;;;;;;5119212;27;20048;-81
2022/02/05 14:31:54;;;;;;;12.65;2.40;;;8.80;99.90;;;;;;5118259;27;20417;-81
2022/02/05 14:34:42;;;;;;;11.82;1.65;;;8.90;99.90;;;;;;5142610;27;20474;-80
2022/02/05 14:42:36;;;;;;;6.63;1.90;;;9.10;99.90;;;;;;5119229;27;20095;-80
2022/02/05 14:45:03;;;;;;;15.35;1.52;;;9.10;99.90;;;;;;5128695;27;20094;-81
2022/02/05 14:47:29;;;;;;;14.15;3.17;;;9.00;99.90;;;;;;5121587;27;20534;-81
2022/02/05 14:49:55;;;;;;;15.70;2.22;;;9.00;99.90;;;;;;5125735;27;20399;-80
2022/02/05 14:52:21;;;;;;;6.80;1.90;;;8.90;99.90;;;;;;5125708;27;20080;-80
2022/02/05 14:54:49;;;;;;;16.90;2.80;;;8.90;99.90;;;;;;5120347;27;20023;-81
2022/02/05 14:57:18;;;;;;;12.38;2.70;;;8.90;99.90;;;;;;5129060;27;20027;-80
2022/02/05 14:59:46;;;;;;;12.93;2.30;;;8.80;99.90;;;;;;5120592;27;20031;-80
2022/02/05 15:02:12;;;;;;;9.80;2.10;;;8.80;99.90;;;;;;5121154;27;20015;-80
2022/02/05 15:04:38;;;;;;;7.82;2.10;;;8.80;99.90;;;;;;5121762;27;20023;-80
2022/02/05 15:07:07;;;;;;;7.50;1.73;;;8.90;99.90;;;;;;5121784;27;20016;-81
2022/02/05 15:09:36;;;;;;;9.23;2.30;;;8.80;99.90;;;;;;5123066;27;20500;-80
2022/02/05 15:12:02;;;;;;;8.13;1.90;;;8.80;99.90;;;;;;5118430;27;20495;-80
2022/02/05 15:14:27;;;;;;;7.65;1.48;;;8.80;99.90;;;;;;5120807;27;20035;-80
2022/02/05 15:16:53;;;;;;;10.45;1.65;;;8.80;99.90;;;;;;5124819;27;20047;-81
2022/02/05 15:19:19;;;;;;;8.00;1.63;;;8.80;99.90;;;;;;5100685;27;20030;-80
2022/02/05 15:21:44;;;;;;;16.08;1.90;;;8.80;99.90;;;;;;5120982;27;20124;-79
2022/02/05 15:24:10;;;;;;;8.48;1.58;;;8.70;99.90;;;;;;5119681;27;20490;-79
2022/02/05 15:26:37;;;;;;;12.80;1.60;;;8.70;99.90;;;;;;5119649;27;20143;-81
2022/02/05 15:29:06;;;;;;;7.28;1.70;;;8.70;99.90;;;;;;5121464;27;20086;-78
2022/02/05 15:31:32;;;;;;;4.10;1.20;;;8.70;99.90;;;;;;5118909;27;20072;-78
2022/02/05 15:33:59;;;;;;;5.68;1.30;;;8.70;99.90;;;;;;5121496;27;20387;-79
2022/02/05 15:44:51;;;;;;;10.55;1.77;;;8.70;99.90;;;;;;5133803;27;20075;-77